Time;durP1;ratioP1;P1;durP2;ratioP2;P2;SDS_P1;SDS_P2;PMS_P1;PMS_P2;Temp;Humidity;BMP_temperature;BMP_pressure;BME280_temperature;BME280_humidity;BME280_pressure;Samples;Min_cycle;Max_cycle;Signal;HPM_P1;HPM_P2
2021/09/09 00:01:37;;;;;;;8.32;7.53;;;;;;;17.79;63.51;95391.06;6167034;23;20262;-78
2021/09/09 00:04:03;;;;;;;10.75;8.07;;;;;;;17.71;63.95;95396.47;6165795;23;20161;-78
2021/09/09 00:06:28;;;;;;;8.38;7.38;;;;;;;17.70;63.91;95392.22;6169554;23;20178;-77
2021/09/09 00:08:53;;;;;;;7.65;6.85;;;;;;;17.69;64.26;95393.22;6144789;23;20597;-78
2021/09/09 00:11:19;;;;;;;8.70;7.78;;;;;;;17.67;64.39;95392.59;6168683;23;20518;-78
2021/09/09 00:13:44;;;;;;;9.32;8.30;;;;;;;17.67;64.25;95389.13;6168480;23;20494;-77
2021/09/09 00:16:09;;;;;;;8.98;8.07;;;;;;;17.63;64.95;95391.34;6166629;23;20199;-78
2021/09/09 00:18:35;;;;;;;9.40;8.02;;;;;;;17.67;64.91;95391.75;6141897;23;20163;-78
2021/09/09 00:21:00;;;;;;;8.50;7.70;;;;;;;17.70;64.85;95386.16;6166150;23;20183;-77
2021/09/09 00:23:26;;;;;;;8.90;7.55;;;;;;;17.75;64.64;95386.38;6167254;23;20152;-78
2021/09/09 00:25:51;;;;;;;9.18;8.27;;;;;;;17.61;64.71;95382.06;6141661;23;20179;-77
2021/09/09 00:28:16;;;;;;;8.30;7.50;;;;;;;17.62;65.15;95384.50;6166911;23;20155;-77
2021/09/09 00:30:42;;;;;;;9.18;8.27;;;;;;;17.58;65.16;95385.91;6166204;23;20231;-77
2021/09/09 00:33:08;;;;;;;9.70;8.23;;;;;;;17.57;65.30;95384.25;6167390;23;20215;-78
2021/09/09 00:35:37;;;;;;;10.55;8.32;;;;;;;17.60;65.22;95385.69;6141860;23;20175;-76
2021/09/09 00:38:02;;;;;;;9.48;8.40;;;;;;;17.68;65.61;95377.66;6166655;23;20162;-78
2021/09/09 00:40:29;;;;;;;9.45;8.00;;;;;;;17.73;65.20;95378.69;6167117;23;20187;-78
2021/09/09 00:42:54;;;;;;;9.48;8.35;;;;;;;17.83;65.02;95383.59;6167616;23;20151;-79
2021/09/09 00:45:19;;;;;;;9.63;8.10;;;;;;;17.88;64.52;95372.50;6169108;23;20198;-78
2021/09/09 00:47:44;;;;;;;8.60;7.70;;;;;;;17.85;64.97;95375.53;6171179;23;20165;-78
2021/09/09 00:50:10;;;;;;;10.05;7.93;;;;;;;17.86;64.67;95374.53;6172189;23;20621;-78
2021/09/09 00:52:35;;;;;;;8.70;7.80;;;;;;;17.92;64.55;95377.16;6139652;23;20159;-77
2021/09/09 00:55:01;;;;;;;9.02;8.10;;;;;;;17.93;64.36;95373.50;6159771;23;20579;-77
2021/09/09 00:57:26;;;;;;;8.18;7.38;;;;;;;17.93;64.06;95373.50;6137040;23;20159;-76
2021/09/09 00:59:52;;;;;;;7.97;7.18;;;;;;;17.92;64.38;95373.72;6137263;23;20183;-77
2021/09/09 01:02:18;;;;;;;8.85;8.05;;;;;;;17.88;64.25;95375.94;6161803;23;20154;-77
2021/09/09 01:04:43;;;;;;;12.23;7.32;;;;;;;17.85;64.01;95367.66;6161049;23;20203;-78
2021/09/09 01:07:08;;;;;;;9.63;7.97;;;;;;;17.89;64.03;95366.25;6161505;23;20217;-77
2021/09/09 01:09:34;;;;;;;8.00;7.30;;;;;;;17.89;63.97;95363.63;6137508;23;20163;-76
2021/09/09 01:11:59;;;;;;;9.93;7.85;;;;;;;17.86;64.01;95361.41;6165620;23;20170;-77
2021/09/09 01:14:25;;;;;;;8.38;7.20;;;;;;;17.90;64.25;95359.97;6166362;23;20190;-78
2021/09/09 01:16:51;;;;;;;8.38;7.45;;;;;;;17.86;64.37;95354.31;6168349;23;20219;-77
2021/09/09 01:19:16;;;;;;;8.98;7.38;;;;;;;17.83;63.91;95346.81;6166617;23;20160;-76
2021/09/09 01:21:42;;;;;;;8.70;7.32;;;;;;;17.87;63.58;95344.63;6141612;23;20190;-76
2021/09/09 01:24:12;;;;;;;9.60;7.38;;;;;;;17.88;63.77;95352.31;6163526;23;20147;-78
2021/09/09 01:26:54;;;;;;;10.10;7.18;;;;;;;17.80;63.88;95348.03;6164710;23;20181;-78
2021/09/09 01:29:21;;;;;;;9.50;8.27;;;;;;;17.76;63.91;95349.44;6162223;23;20151;-78
2021/09/09 01:31:47;;;;;;;8.13;6.85;;;;;;;17.78;63.69;95350.03;6141362;23;20170;-76
2021/09/09 01:34:13;;;;;;;10.10;7.18;;;;;;;17.78;63.66;95341.34;6166882;23;20151;-78
2021/09/09 01:36:38;;;;;;;8.98;7.60;;;;;;;17.80;63.42;95350.66;6167060;23;20214;-78
2021/09/09 01:39:03;;;;;;;9.82;7.45;;;;;;;17.77;63.58;95345.00;6169955;23;20194;-76
2021/09/09 01:41:29;;;;;;;8.52;7.40;;;;;;;17.72;63.67;95342.94;6164697;23;20191;-77
2021/09/09 01:43:54;;;;;;;9.20;7.57;;;;;;;17.69;63.82;95348.56;6162317;23;20203;-76
2021/09/09 01:46:19;;;;;;;7.55;6.85;;;;;;;17.68;64.42;95340.91;6163487;23;20176;-78
2021/09/09 01:48:45;;;;;;;8.18;7.38;;;;;;;17.67;63.72;95344.50;6163155;23;20170;-77
2021/09/09 01:51:10;;;;;;;8.68;7.15;;;;;;;17.59;64.09;95337.63;6163246;23;20151;-78
2021/09/09 01:53:35;;;;;;;8.15;7.38;;;;;;;17.52;64.68;95337.59;6139086;23;20155;-78
2021/09/09 01:56:01;;;;;;;8.32;7.53;;;;;;;17.50;64.41;95336.19;6164831;23;20186;-76
2021/09/09 01:58:26;;;;;;;8.13;7.22;;;;;;;17.45;64.94;95339.38;6164989;23;20159;-78
2021/09/09 02:00:51;;;;;;;8.43;7.15;;;;;;;17.50;64.60;95336.97;6164911;23;20536;-76
2021/09/09 02:03:16;;;;;;;8.52;7.18;;;;;;;17.48;64.38;95333.72;6140841;23;20251;-76
2021/09/09 02:05:42;;;;;;;7.60;6.80;;;;;;;17.44;64.64;95334.31;6164204;23;20198;-77
2021/09/09 02:08:07;;;;;;;9.13;7.35;;;;;;;17.41;65.00;95334.72;6164860;23;20155;-77
2021/09/09 02:10:32;;;;;;;7.43;6.63;;;;;;;17.42;64.71;95331.91;6166385;23;20162;-78
2021/09/09 02:12:58;;;;;;;8.23;7.47;;;;;;;17.36;65.10;95329.22;6140689;23;20242;-77
2021/09/09 02:15:24;;;;;;;8.55;6.93;;;;;;;17.37;64.81;95329.03;6163929;23;20254;-77
2021/09/09 02:17:50;;;;;;;8.40;6.57;;;;;;;17.30;64.98;95330.00;6141102;23;20452;-76
2021/09/09 02:20:15;;;;;;;7.57;6.78;;;;;;;17.29;65.08;95329.19;6164246;23;20266;-77
2021/09/09 02:22:40;;;;;;;8.18;7.18;;;;;;;17.28;64.90;95327.56;6163520;23;20222;-76
2021/09/09 02:25:06;;;;;;;7.93;7.07;;;;;;;17.16;65.54;95326.50;6161701;23;20178;-77
2021/09/09 02:27:31;;;;;;;8.93;7.28;;;;;;;17.18;65.27;95327.94;6140013;23;20166;-77
2021/09/09 02:29:57;;;;;;;9.52;7.47;;;;;;;17.13;65.47;95327.69;6163246;23;20265;-77
2021/09/09 02:32:22;;;;;;;9.65;6.80;;;;;;;17.18;65.34;95330.56;6164226;23;20748;-78
2021/09/09 02:34:47;;;;;;;8.68;7.25;;;;;;;17.21;65.17;95330.16;6164135;23;20183;-77
2021/09/09 02:37:12;;;;;;;7.80;6.65;;;;;;;17.14;64.98;95333.75;6167791;23;20211;-78
2021/09/09 02:39:42;;;;;;;7.13;6.53;;;;;;;17.13;65.58;95329.50;6166680;23;20163;-77
2021/09/09 02:42:07;;;;;;;7.38;6.68;;;;;;;17.12;65.39;95327.88;6165984;23;20186;-77
2021/09/09 02:44:32;;;;;;;8.65;6.82;;;;;;;17.16;65.65;95327.31;6165542;23;20175;-78
2021/09/09 02:46:58;;;;;;;7.13;6.53;;;;;;;17.13;65.58;95325.06;6141250;23;20170;-77
2021/09/09 02:49:23;;;;;;;7.15;6.30;;;;;;;17.16;65.55;95322.06;6164714;23;20633;-77
2021/09/09 02:51:48;;;;;;;8.95;6.60;;;;;;;17.15;65.46;95317.03;6164041;23;20214;-77
2021/09/09 02:54:14;;;;;;;8.63;7.03;;;;;;;17.15;65.43;95322.28;6162667;23;20159;-78
2021/09/09 02:56:39;;;;;;;7.85;6.53;;;;;;;17.13;65.60;95322.44;6139258;23;20481;-78
2021/09/09 02:59:04;;;;;;;8.00;7.20;;;;;;;17.14;65.47;95324.09;6164846;23;20187;-75
2021/09/09 03:01:30;;;;;;;7.63;6.82;;;;;;;17.09;65.84;95315.16;6166317;23;20171;-78
2021/09/09 03:03:58;;;;;;;8.10;7.28;;;;;;;17.12;66.04;95314.78;6139171;23;20214;-77
2021/09/09 03:06:23;;;;;;;10.27;7.97;;;;;;;17.12;65.93;95315.56;6166772;23;20161;-78
2021/09/09 03:08:48;;;;;;;7.75;6.80;;;;;;;17.08;65.72;95318.78;6166891;23;20175;-78
2021/09/09 03:11:14;;;;;;;10.95;6.90;;;;;;;17.04;66.09;95315.72;6140961;23;20160;-78
2021/09/09 03:13:39;;;;;;;8.25;7.45;;;;;;;16.97;66.20;95312.28;6167714;23;20160;-77
2021/09/09 03:16:04;;;;;;;7.72;7.03;;;;;;;16.93;66.13;95311.84;6166949;23;20183;-78
2021/09/09 03:18:30;;;;;;;8.40;7.03;;;;;;;16.90;66.44;95308.81;6167121;23;20151;-78
2021/09/09 03:20:56;;;;;;;8.23;6.97;;;;;;;16.86;66.86;95310.16;6166924;23;20186;-78
2021/09/09 03:23:21;;;;;;;7.80;7.05;;;;;;;16.84;66.79;95306.94;6165231;23;20170;-77
2021/09/09 03:25:46;;;;;;;7.50;6.80;;;;;;;16.79;66.93;95298.84;6163091;23;20183;-77
2021/09/09 03:28:12;;;;;;;10.77;7.32;;;;;;;16.83;66.92;95294.84;6167791;23;20158;-79
2021/09/09 03:30:37;;;;;;;7.78;7.07;;;;;;;16.90;66.53;95300.94;6164145;23;20155;-77
2021/09/09 03:33:02;;;;;;;7.38;6.68;;;;;;;16.86;66.70;95302.31;6166353;23;20238;-77
2021/09/09 03:35:28;;;;;;;8.80;7.07;;;;;;;16.82;66.71;95304.50;6165582;23;20191;-78
2021/09/09 03:37:54;;;;;;;8.30;7.10;;;;;;;16.75;67.48;95302.84;6142591;23;20162;-78
2021/09/09 03:40:19;;;;;;;8.82;7.05;;;;;;;16.80;67.39;95300.47;6141541;23;20185;-78
2021/09/09 03:42:45;;;;;;;8.55;6.90;;;;;;;16.70;67.42;95293.75;6167212;23;20679;-78
2021/09/09 03:45:10;;;;;;;7.85;7.15;;;;;;;16.68;67.74;95302.75;6166650;23;20609;-79
2021/09/09 03:47:35;;;;;;;8.70;7.05;;;;;;;16.76;66.94;95292.16;6169312;23;20174;-78
2021/09/09 03:50:01;;;;;;;9.80;7.53;;;;;;;16.72;67.48;95293.56;6167436;23;20478;-79
2021/09/09 03:52:26;;;;;;;8.35;7.53;;;;;;;16.71;67.43;95297.19;6143510;23;20190;-78
2021/09/09 03:54:51;;;;;;;8.88;7.45;;;;;;;16.66;67.80;95292.47;6166008;23;20198;-78
2021/09/09 03:57:17;;;;;;;8.18;7.35;;;;;;;16.60;68.04;95295.84;6166704;23;20174;-78
2021/09/09 03:59:42;;;;;;;9.50;7.78;;;;;;;16.60;67.88;95295.84;6165696;23;20227;-78
2021/09/09 04:02:07;;;;;;;8.55;7.25;;;;;;;16.59;68.07;95298.66;6164526;23;20643;-76
2021/09/09 04:04:33;;;;;;;9.45;6.88;;;;;;;16.56;68.18;95286.75;6161485;23;20226;-78
2021/09/09 04:06:58;;;;;;;9.32;7.43;;;;;;;16.51;68.25;95294.38;6165802;23;20236;-76
2021/09/09 04:09:23;;;;;;;8.02;7.22;;;;;;;16.55;68.23;95297.44;6141137;23;20550;-77
2021/09/09 04:11:49;;;;;;;7.65;6.85;;;;;;;16.52;68.38;95296.00;6141131;23;20151;-77
2021/09/09 04:14:14;;;;;;;10.52;7.43;;;;;;;16.52;68.14;95301.25;6138831;23;20159;-80
2021/09/09 04:16:40;;;;;;;9.65;7.30;;;;;;;16.61;68.49;95289.63;6168221;23;20162;-80
2021/09/09 04:19:05;;;;;;;10.38;6.93;;;;;;;16.65;68.11;95295.28;6161421;23;20966;-79
2021/09/09 04:21:31;;;;;;;8.00;6.80;;;;;;;16.62;68.19;95290.44;6159554;23;20265;-79
2021/09/09 04:23:56;;;;;;;8.93;7.53;;;;;;;16.70;67.91;95291.13;6160779;23;20163;-81
2021/09/09 04:26:21;;;;;;;9.32;7.30;;;;;;;16.77;67.61;95292.97;6158955;23;20178;-81
2021/09/09 04:28:47;;;;;;;9.27;6.93;;;;;;;16.89;66.82;95300.13;6162279;23;20159;-80
2021/09/09 04:31:12;;;;;;;8.07;7.28;;;;;;;16.89;66.79;95299.31;6134274;23;20156;-80
2021/09/09 04:33:37;;;;;;;8.50;6.95;;;;;;;16.93;66.53;95295.28;6161156;23;20155;-80
2021/09/09 04:36:03;;;;;;;9.68;6.75;;;;;;;16.87;67.11;95296.88;6135528;23;20213;-81
2021/09/09 04:38:28;;;;;;;8.32;6.85;;;;;;;16.94;66.77;95304.78;6159752;23;20170;-80
2021/09/09 04:40:53;;;;;;;8.35;7.55;;;;;;;16.98;66.55;95293.72;6159822;23;20186;-79
2021/09/09 04:43:19;;;;;;;8.02;7.10;;;;;;;17.13;65.62;95300.63;6158778;23;20501;-78
2021/09/09 04:45:44;;;;;;;7.80;6.88;;;;;;;17.18;65.26;95287.75;6160155;23;20198;-79
2021/09/09 04:48:10;;;;;;;7.47;6.78;;;;;;;17.16;65.45;95284.53;6160156;23;20155;-80
2021/09/09 04:50:35;;;;;;;7.53;6.82;;;;;;;17.16;65.68;95290.59;6134443;23;20159;-79
2021/09/09 04:53:00;;;;;;;8.65;7.00;;;;;;;17.18;65.00;95296.44;6134497;23;20234;-81
2021/09/09 04:55:26;;;;;;;9.93;6.63;;;;;;;17.16;65.34;95301.09;6133269;23;20187;-79
2021/09/09 04:57:51;;;;;;;7.82;7.03;;;;;;;17.11;65.43;95307.91;6134279;23;20156;-80
2021/09/09 05:00:16;;;;;;;8.60;6.95;;;;;;;17.11;65.56;95295.59;6162369;23;20515;-80
2021/09/09 05:02:42;;;;;;;7.97;7.07;;;;;;;17.09;65.10;95302.84;6159571;23;20157;-80
2021/09/09 05:05:07;;;;;;;7.85;7.05;;;;;;;17.11;65.55;95305.28;6159160;23;20170;-81
2021/09/09 05:07:34;;;;;;;8.20;6.80;;;;;;;17.09;65.30;95307.28;6156568;23;20611;-80
2021/09/09 05:10:00;;;;;;;9.45;6.57;;;;;;;17.20;65.07;95310.16;6161881;23;20585;-79
2021/09/09 05:12:25;;;;;;;8.88;7.35;;;;;;;17.25;64.58;95304.34;6160301;23;20185;-79
2021/09/09 05:14:50;;;;;;;9.10;6.88;;;;;;;17.29;64.77;95308.19;6157725;23;20494;-81
2021/09/09 05:17:16;;;;;;;7.75;6.90;;;;;;;17.32;64.54;95309.66;6134484;23;20178;-79
2021/09/09 05:19:41;;;;;;;8.07;7.28;;;;;;;17.45;64.33;95312.31;6160721;23;20147;-79
2021/09/09 05:22:06;;;;;;;7.55;6.80;;;;;;;17.47;64.18;95311.09;6159736;23;20178;-79
2021/09/09 05:24:32;;;;;;;8.10;7.13;;;;;;;17.48;64.06;95309.28;6133038;23;20194;-79
2021/09/09 05:26:57;;;;;;;8.40;6.82;;;;;;;17.53;63.92;95312.16;6134725;23;20155;-80
2021/09/09 05:29:23;;;;;;;8.35;6.88;;;;;;;17.57;63.74;95308.09;6162726;23;20464;-79
2021/09/09 05:31:48;;;;;;;7.80;6.90;;;;;;;17.68;63.27;95319.88;6159923;23;20506;-80
2021/09/09 05:34:14;;;;;;;8.07;7.15;;;;;;;17.71;62.57;95316.88;6159673;23;20226;-81
2021/09/09 05:36:39;;;;;;;9.18;7.07;;;;;;;17.76;62.91;95323.19;6158484;23;20170;-79
2021/09/09 05:39:04;;;;;;;7.68;6.63;;;;;;;17.82;62.86;95316.31;6133875;23;20170;-79
2021/09/09 05:41:30;;;;;;;7.28;6.45;;;;;;;17.90;62.55;95321.38;6159674;23;20199;-79
2021/09/09 05:43:55;;;;;;;7.40;6.70;;;;;;;18.01;62.37;95325.25;6159134;23;20155;-79
2021/09/09 05:46:20;;;;;;;7.90;6.80;;;;;;;18.07;62.27;95327.88;6137702;23;20187;-80
2021/09/09 05:48:45;;;;;;;8.80;6.72;;;;;;;18.16;61.81;95328.50;6163729;23;20163;-79
2021/09/09 05:51:11;;;;;;;7.82;6.97;;;;;;;18.23;61.93;95328.53;6167935;23;20154;-79
2021/09/09 05:53:36;;;;;;;9.55;7.13;;;;;;;18.35;61.44;95332.19;6140885;23;20179;-80
2021/09/09 05:56:01;;;;;;;7.90;6.65;;;;;;;18.40;61.21;95333.19;6164447;23;20186;-80
2021/09/09 05:58:27;;;;;;;7.65;6.82;;;;;;;18.53;60.35;95339.47;6140212;23;20211;-79
2021/09/09 06:00:52;;;;;;;7.07;6.38;;;;;;;18.52;60.06;95337.84;6165107;23;20537;-79
2021/09/09 06:03:17;;;;;;;8.40;6.82;;;;;;;18.64;60.03;95331.81;6165451;23;20152;-78
2021/09/09 06:05:43;;;;;;;8.85;7.28;;;;;;;18.70;60.35;95339.91;6163404;23;20246;-79
2021/09/09 06:08:08;;;;;;;9.93;7.00;;;;;;;18.79;59.96;95349.22;6163264;23;20156;-79
2021/09/09 06:10:33;;;;;;;9.73;6.80;;;;;;;18.88;59.99;95345.34;6161611;23;20151;-79
2021/09/09 06:12:59;;;;;;;7.43;6.28;;;;;;;19.03;59.49;95342.53;6163442;23;20160;-79
2021/09/09 06:15:24;;;;;;;9.15;6.68;;;;;;;19.06;59.79;95347.38;6140370;23;20235;-79
2021/09/09 06:17:49;;;;;;;7.57;6.82;;;;;;;19.12;58.61;95349.19;6165838;23;20190;-79
2021/09/09 06:20:15;;;;;;;7.53;6.60;;;;;;;19.20;59.30;95346.34;6163049;23;20190;-80
2021/09/09 06:22:40;;;;;;;7.22;6.53;;;;;;;19.24;59.27;95340.44;6163349;23;20199;-79
2021/09/09 06:25:06;;;;;;;11.35;6.95;;;;;;;19.36;58.88;95347.72;6136433;23;20179;-77
2021/09/09 06:27:31;;;;;;;8.05;6.38;;;;;;;19.49;58.68;95343.22;6135735;23;20242;-82
2021/09/09 06:29:56;;;;;;;8.07;6.20;;;;;;;19.56;58.57;95342.41;6165795;23;20159;-79
2021/09/09 06:32:22;;;;;;;7.30;6.60;;;;;;;19.60;58.22;95346.25;6141632;23;20167;-77
2021/09/09 06:34:47;;;;;;;9.27;6.75;;;;;;;19.72;57.41;95352.50;6164179;23;20226;-78
2021/09/09 06:37:12;;;;;;;9.63;6.88;;;;;;;19.69;58.10;95345.81;6165771;23;20160;-78
2021/09/09 06:39:38;;;;;;;7.45;6.28;;;;;;;19.91;57.44;95350.78;6164511;23;20234;-78
2021/09/09 06:42:03;;;;;;;8.23;6.78;;;;;;;19.89;57.79;95353.63;6166874;23;20155;-78
2021/09/09 06:44:28;;;;;;;8.85;6.43;;;;;;;19.89;57.92;95353.63;6165346;23;20183;-77
2021/09/09 06:46:54;;;;;;;7.63;6.93;;;;;;;19.60;59.30;95351.50;6166573;23;20155;-79
2021/09/09 06:49:19;;;;;;;7.45;6.75;;;;;;;19.64;58.74;95355.38;6165931;23;20458;-77
2021/09/09 06:51:44;;;;;;;6.75;6.15;;;;;;;19.76;58.26;95354.50;6166692;23;20152;-77
2021/09/09 06:54:10;;;;;;;10.32;6.38;;;;;;;19.87;58.36;95350.38;6164766;23;20158;-77
2021/09/09 06:56:35;;;;;;;8.70;6.80;;;;;;;19.82;58.56;95347.59;6141733;23;20621;-80
2021/09/09 06:59:00;;;;;;;8.18;6.43;;;;;;;19.84;57.88;95352.63;6166774;23;20178;-78
2021/09/09 07:01:26;;;;;;;8.95;6.25;;;;;;;19.86;58.63;95351.41;6166533;23;20215;-80
2021/09/09 07:03:51;;;;;;;7.50;6.80;;;;;;;19.78;57.90;95349.81;6165090;23;20254;-78
2021/09/09 07:06:16;;;;;;;10.90;6.60;;;;;;;19.77;58.32;95357.94;6168486;23;20172;-78
2021/09/09 07:08:42;;;;;;;7.70;6.93;;;;;;;19.74;58.41;95350.47;6142222;23;20659;-80
2021/09/09 07:11:07;;;;;;;6.60;6.00;;;;;;;19.79;58.24;95351.47;6166719;23;20159;-78
2021/09/09 07:13:33;;;;;;;8.10;6.75;;;;;;;19.64;58.03;95352.72;6165332;23;20169;-77
2021/09/09 07:15:59;;;;;;;7.63;6.55;;;;;;;19.57;58.92;95347.47;6166859;23;20186;-79
2021/09/09 07:18:28;;;;;;;8.02;6.50;;;;;;;19.60;59.05;95356.78;6141712;23;20539;-80
2021/09/09 07:20:53;;;;;;;10.13;6.90;;;;;;;19.63;58.80;95365.09;6141977;23;20190;-79
2021/09/09 07:23:19;;;;;;;7.53;6.82;;;;;;;19.73;58.48;95359.38;6143118;23;20183;-77
2021/09/09 07:25:45;;;;;;;6.53;5.93;;;;;;;19.84;58.20;95366.63;6164396;23;20171;-80
2021/09/09 07:28:11;;;;;;;8.27;6.78;;;;;;;19.92;58.16;95362.94;6165901;23;20151;-76
2021/09/09 07:30:36;;;;;;;8.10;6.55;;;;;;;19.98;58.59;95362.13;6167269;23;20174;-77
2021/09/09 07:33:03;;;;;;;6.93;6.20;;;;;;;20.06;58.43;95365.31;6143532;23;20159;-79
2021/09/09 07:35:28;;;;;;;8.88;6.18;;;;;;;20.23;57.94;95364.78;6139796;23;20178;-78
2021/09/09 07:37:54;;;;;;;7.05;6.45;;;;;;;20.35;58.21;95368.41;6164072;23;20206;-79
2021/09/09 07:40:20;;;;;;;6.50;5.90;;;;;;;20.48;57.74;95364.88;6162638;23;20209;-78
2021/09/09 07:42:45;;;;;;;8.93;6.80;;;;;;;20.63;57.59;95379.38;6139975;23;20159;-78
2021/09/09 07:45:11;;;;;;;8.38;7.00;;;;;;;20.59;57.50;95380.84;6164880;23;20171;-79
2021/09/09 07:47:36;;;;;;;7.75;6.90;;;;;;;20.66;56.68;95380.78;6165492;23;20226;-79
2021/09/09 07:50:02;;;;;;;8.75;7.45;;;;;;;20.70;57.53;95378.53;6140338;23;20166;-78
2021/09/09 07:52:27;;;;;;;6.78;6.10;;;;;;;20.82;56.88;95382.91;6165631;23;20155;-79
2021/09/09 07:54:52;;;;;;;7.45;6.65;;;;;;;20.83;56.71;95383.69;6164540;23;20187;-78
2021/09/09 07:57:17;;;;;;;7.85;7.05;;;;;;;20.87;57.11;95387.53;6165088;23;20155;-79
2021/09/09 07:59:43;;;;;;;8.15;7.35;;;;;;;20.95;57.23;95392.56;6163317;23;20151;-80
2021/09/09 08:02:08;;;;;;;7.57;6.78;;;;;;;20.98;56.96;95399.22;6165062;23;20158;-78
2021/09/09 08:04:34;;;;;;;9.02;6.93;;;;;;;20.89;56.70;95401.31;6165215;23;20589;-78
2021/09/09 08:07:00;;;;;;;7.35;6.65;;;;;;;21.13;56.52;95392.59;6167833;23;20162;-79
2021/09/09 08:09:25;;;;;;;6.68;6.00;;;;;;;21.15;55.96;95397.66;6140982;23;20163;-78
2021/09/09 08:11:51;;;;;;;6.72;5.93;;;;;;;21.23;56.46;95397.38;6164260;23;20151;-78
2021/09/09 08:14:16;;;;;;;7.25;6.38;;;;;;;21.33;56.09;95404.84;6140122;23;20269;-78
2021/09/09 08:16:42;;;;;;;7.43;6.55;;;;;;;21.52;54.92;95398.53;6165572;23;20166;-79
2021/09/09 08:19:08;;;;;;;8.80;6.63;;;;;;;21.48;53.88;95407.94;6164118;23;20657;-78
2021/09/09 08:21:33;;;;;;;7.20;6.38;;;;;;;21.51;54.54;95396.94;6167480;23;20205;-78
2021/09/09 08:23:58;;;;;;;9.07;6.60;;;;;;;21.48;55.13;95397.38;6141545;23;20273;-79
2021/09/09 08:26:24;;;;;;;7.82;6.03;;;;;;;21.49;54.94;95407.72;6160328;23;20549;-78
2021/09/09 08:28:49;;;;;;;6.90;6.20;;;;;;;21.75;54.43;95403.19;6163143;23;20214;-79
2021/09/09 08:31:15;;;;;;;8.18;5.85;;;;;;;21.81;54.69;95401.47;6142628;23;20151;-79
2021/09/09 08:33:42;;;;;;;8.45;6.15;;;;;;;21.84;54.14;95395.78;6168086;23;20171;-79
2021/09/09 08:36:09;;;;;;;6.20;5.70;;;;;;;21.99;54.82;95406.75;6165223;23;20171;-78
2021/09/09 08:38:34;;;;;;;9.43;6.35;;;;;;;21.98;55.50;95410.44;6141145;23;20497;-79
2021/09/09 08:41:03;;;;;;;9.40;6.22;;;;;;;21.94;54.90;95411.91;6138285;23;20187;-77
2021/09/09 08:43:30;;;;;;;7.10;6.40;;;;;;;21.97;54.61;95411.47;6164046;23;20522;-77
2021/09/09 08:45:58;;;;;;;9.43;5.80;;;;;;;22.08;54.68;95423.97;6164593;23;20171;-79
2021/09/09 08:48:24;;;;;;;7.57;6.18;;;;;;;22.05;54.38;95419.09;6167081;23;20182;-79
2021/09/09 08:50:50;;;;;;;8.57;6.05;;;;;;;22.21;53.48;95417.72;6164820;23;20624;-78
2021/09/09 08:53:15;;;;;;;12.18;6.10;;;;;;;22.27;53.90;95419.47;6139967;23;20214;-79
2021/09/09 08:55:43;;;;;;;7.30;5.50;;;;;;;22.42;54.38;95425.16;6164778;23;20249;-77
2021/09/09 08:58:10;;;;;;;7.72;6.35;;;;;;;22.36;54.22;95427.91;6166809;23;20496;-78
2021/09/09 09:00:35;;;;;;;7.50;5.95;;;;;;;22.47;54.62;95433.25;6140795;23;20187;-80
2021/09/09 09:03:01;;;;;;;6.32;5.10;;;;;;;22.41;51.69;95426.19;6166091;23;20172;-79
2021/09/09 09:05:26;;;;;;;8.55;5.80;;;;;;;22.58;52.16;95435.13;6167033;23;20214;-80
2021/09/09 09:07:59;;;;;;;6.32;5.78;;;;;;;22.66;52.88;95436.63;6167637;23;20155;-79
2021/09/09 09:10:24;;;;;;;7.50;5.53;;;;;;;22.65;52.33;95434.22;6143974;23;20643;-79
2021/09/09 09:12:50;;;;;;;9.85;5.90;;;;;;;22.76;51.29;95431.59;6168484;23;20159;-76
2021/09/09 09:15:25;;;;;;;5.93;5.30;;;;;;;22.88;51.15;95429.00;6166841;23;20187;-80
2021/09/09 09:17:58;;;;;;;7.40;5.88;;;;;;;22.96;52.22;95435.81;6167164;23;20146;-78
2021/09/09 09:20:27;;;;;;;7.30;5.60;;;;;;;23.03;51.38;95442.63;6141610;23;20194;-78
2021/09/09 09:22:54;;;;;;;6.22;5.68;;;;;;;23.07;51.07;95427.09;6141121;23;20561;-76
2021/09/09 09:25:42;;;;;;;6.30;5.63;;;;;;;23.09;50.01;95430.31;6168175;23;20171;-78
2021/09/09 09:28:07;;;;;;;8.13;5.20;;;;;;;23.23;50.64;95436.19;6168858;23;20150;-78
2021/09/09 09:30:32;;;;;;;7.13;5.57;;;;;;;23.31;50.53;95441.97;6142055;23;20606;-78
2021/09/09 09:32:58;;;;;;;6.05;5.45;;;;;;;23.43;51.70;95445.44;6167498;23;20152;-78
2021/09/09 09:35:24;;;;;;;5.85;5.22;;;;;;;23.47;50.13;95451.09;6169716;23;20186;-76
2021/09/09 09:38:03;;;;;;;6.57;4.55;;;;;;;23.48;51.31;95443.94;6170321;23;20183;-76
2021/09/09 09:40:31;;;;;;;4.93;4.30;;;;;;;23.27;50.75;95445.31;6143472;23;20171;-79
2021/09/09 09:42:58;;;;;;;7.10;4.63;;;;;;;23.50;50.97;95448.00;6167804;23;20167;-79
2021/09/09 09:45:23;;;;;;;5.70;3.72;;;;;;;23.69;50.12;95448.72;6166182;23;20504;-78
2021/09/09 09:47:48;;;;;;;5.00;4.40;;;;;;;23.65;50.45;95444.88;6169053;23;20155;-79
2021/09/09 09:50:18;;;;;;;4.78;3.88;;;;;;;23.83;50.01;95443.94;6167334;23;20158;-79
2021/09/09 09:52:44;;;;;;;4.30;3.90;;;;;;;24.17;49.85;95445.72;6165107;23;20471;-79
2021/09/09 09:55:10;;;;;;;5.95;4.30;;;;;;;24.20;50.10;95452.41;6163220;23;20191;-79
2021/09/09 09:57:55;;;;;;;4.03;3.50;;;;;;;24.01;49.25;95446.47;6163548;23;20167;-78
2021/09/09 10:00:22;;;;;;;4.38;3.60;;;;;;;24.11;49.33;95438.69;6163171;23;20183;-78
2021/09/09 10:02:47;;;;;;;5.20;3.40;;;;;;;24.20;48.59;95445.25;6165341;23;20151;-79
2021/09/09 10:05:13;;;;;;;3.45;3.17;;;;;;;24.21;48.81;95443.44;6139289;23;20211;-78
2021/09/09 10:07:38;;;;;;;5.65;3.20;;;;;;;24.18;48.71;95438.56;6164989;23;20160;-79
2021/09/09 10:10:04;;;;;;;4.32;3.45;;;;;;;24.37;48.92;95442.69;6168036;23;20147;-77
2021/09/09 10:12:30;;;;;;;4.32;3.40;;;;;;;24.38;47.57;95449.59;6168339;23;20242;-76
2021/09/09 10:14:56;;;;;;;4.93;3.38;;;;;;;24.45;48.26;95438.88;6167785;23;20233;-79
2021/09/09 10:17:22;;;;;;;3.92;3.53;;;;;;;24.34;48.66;95437.06;6170581;23;20159;-77
2021/09/09 10:19:49;;;;;;;3.90;3.38;;;;;;;24.23;48.05;95441.34;6167564;23;20159;-79
2021/09/09 10:22:16;;;;;;;5.50;3.50;;;;;;;24.43;49.32;95439.09;6144362;23;20219;-77
2021/09/09 10:24:43;;;;;;;5.82;3.33;;;;;;;24.47;48.42;95436.78;6141977;23;20179;-77
2021/09/09 10:27:21;;;;;;;4.35;3.22;;;;;;;24.70;48.26;95436.69;6141616;23;20155;-78
2021/09/09 10:30:00;;;;;;;4.70;3.50;;;;;;;24.79;47.68;95434.44;6166607;23;20221;-78
2021/09/09 10:32:28;;;;;;;4.72;3.63;;;;;;;24.89;47.44;95434.63;6167085;23;20182;-78
2021/09/09 10:35:19;;;;;;;4.78;3.45;;;;;;;24.76;47.70;95435.72;6167640;23;20178;-79
2021/09/09 10:38:00;;;;;;;7.35;3.40;;;;;;;24.95;47.55;95432.84;6165726;23;20162;-78
2021/09/09 10:40:28;;;;;;;3.70;3.22;;;;;;;24.50;47.74;95431.00;6161417;23;20246;-77
2021/09/09 10:42:54;;;;;;;4.45;4.05;;;;;;;24.50;47.91;95437.13;6163570;23;20162;-78
2021/09/09 10:45:35;;;;;;;4.43;3.20;;;;;;;24.74;48.52;95434.38;6164056;23;20171;-79
2021/09/09 10:48:02;;;;;;;3.88;3.22;;;;;;;24.89;48.17;95439.13;6167669;23;20166;-78
2021/09/09 10:50:27;;;;;;;4.30;3.63;;;;;;;24.81;47.21;95427.03;6140701;23;20153;-77
2021/09/09 10:53:00;;;;;;;8.00;3.75;;;;;;;24.92;47.06;95438.66;6164910;23;20171;-78
2021/09/09 10:55:27;;;;;;;4.38;3.58;;;;;;;24.65;47.19;95438.44;6164013;23;20190;-78
2021/09/09 10:58:18;;;;;;;3.72;3.40;;;;;;;24.59;48.99;95429.59;6141187;23;20552;-79
2021/09/09 11:00:50;;;;;;;6.95;3.85;;;;;;;24.42;49.47;95428.72;6161497;23;20187;-78
2021/09/09 11:03:40;;;;;;;5.78;3.85;;;;;;;24.32;49.00;95426.69;6163381;23;20159;-77
2021/09/09 11:06:14;;;;;;;4.50;3.65;;;;;;;24.26;49.02;95424.94;6139157;23;20185;-78
2021/09/09 11:08:41;;;;;;;6.20;3.90;;;;;;;24.39;48.37;95423.91;6163253;23;20151;-77
2021/09/09 11:11:13;;;;;;;4.18;3.75;;;;;;;24.28;49.05;95421.00;6140076;23;20156;-78
2021/09/09 11:13:39;;;;;;;4.72;3.75;;;;;;;24.58;49.54;95420.81;6163320;23;20500;-77
2021/09/09 11:16:22;;;;;;;4.47;3.85;;;;;;;24.61;47.99;95427.50;6164132;23;20171;-78
2021/09/09 11:18:48;;;;;;;4.20;3.80;;;;;;;24.87;46.81;95431.41;6139063;23;20163;-77
2021/09/09 11:21:18;;;;;;;4.70;4.30;;;;;;;24.47;45.62;95432.28;6139725;23;20186;-76
2021/09/09 11:23:44;;;;;;;9.80;4.20;;;;;;;24.38;46.09;95438.19;6164983;23;20623;-77
2021/09/09 11:26:14;;;;;;;4.60;4.07;;;;;;;24.77;46.37;95439.19;6141505;23;20179;-79
2021/09/09 11:28:40;;;;;;;5.35;3.97;;;;;;;24.97;45.32;95434.22;6165938;23;20544;-78
2021/09/09 11:31:21;;;;;;;5.10;4.18;;;;;;;25.31;44.36;95437.72;6166354;23;20148;-78